Time;durP1;ratioP1;P1;durP2;ratioP2;P2;SDS_P1;SDS_P2;PMS_P1;PMS_P2;Temp;Humidity;BMP_temperature;BMP_pressure;BME280_temperature;BME280_humidity;BME280_pressure;Samples;Min_cycle;Max_cycle;Signal;HPM_P1;HPM_P2
2022/12/10 00:01:18;;;;;;;23.65;14.90;;;5.10;99.90;;;;;;4957926;28;20218;-74
2022/12/10 00:03:45;;;;;;;24.35;16.05;;;5.10;99.90;;;;;;4926555;28;20195;-74
2022/12/10 00:06:14;;;;;;;27.88;16.08;;;5.10;99.90;;;;;;4941987;28;20159;-74
2022/12/10 00:08:40;;;;;;;26.13;16.45;;;5.10;99.90;;;;;;4958093;28;20164;-75
2022/12/10 00:11:09;;;;;;;23.45;16.88;;;5.10;99.90;;;;;;4926281;28;20671;-74
2022/12/10 00:13:36;;;;;;;28.17;17.58;;;5.10;99.90;;;;;;4941781;28;20211;-75
2022/12/10 00:16:04;;;;;;;28.30;18.77;;;5.10;99.90;;;;;;4975043;28;20179;-75
2022/12/10 00:18:31;;;;;;;30.08;17.52;;;5.10;99.90;;;;;;4957960;28;20211;-74
2022/12/10 00:20:57;;;;;;;30.30;18.13;;;5.10;99.90;;;;;;4974876;28;20727;-75
2022/12/10 00:23:24;;;;;;;27.43;18.53;;;5.10;99.90;;;;;;4941719;28;20309;-75
2022/12/10 00:25:52;;;;;;;34.15;19.58;;;5.00;99.90;;;;;;4941330;28;20218;-74
2022/12/10 00:28:20;;;;;;;28.40;17.98;;;5.10;99.90;;;;;;4941469;28;20186;-74
2022/12/10 00:30:51;;;;;;;30.75;19.80;;;5.00;99.90;;;;;;4957734;28;20723;-74
2022/12/10 00:33:17;;;;;;;26.63;18.67;;;5.10;99.90;;;;;;4957659;28;20167;-74
2022/12/10 00:35:43;;;;;;;28.15;18.42;;;5.10;99.90;;;;;;4941768;28;20210;-74
2022/12/10 00:38:12;;;;;;;24.63;16.38;;;5.10;99.90;;;;;;4974550;28;20688;-74
2022/12/10 00:40:40;;;;;;;28.80;18.25;;;5.00;99.90;;;;;;4942946;29;20740;-74
2022/12/10 00:43:08;;;;;;;29.45;18.50;;;5.00;99.90;;;;;;4923180;29;20211;-74
2022/12/10 00:45:37;;;;;;;27.53;16.93;;;5.00;99.90;;;;;;4922573;29;20251;-74
2022/12/10 00:48:03;;;;;;;26.67;17.10;;;5.00;99.90;;;;;;4938098;29;20400;-74
2022/12/10 00:50:29;;;;;;;30.67;18.47;;;5.00;99.90;;;;;;4964603;28;20600;-75
2022/12/10 00:52:57;;;;;;;27.30;17.48;;;5.00;99.90;;;;;;4941299;28;20557;-74
2022/12/10 00:55:23;;;;;;;26.05;17.40;;;5.00;99.90;;;;;;4957391;28;20226;-74
2022/12/10 00:57:52;;;;;;;28.50;17.45;;;5.00;99.90;;;;;;4957378;28;20180;-74
2022/12/10 01:00:18;;;;;;;24.48;17.13;;;5.00;99.90;;;;;;4957073;28;20630;-75
2022/12/10 01:02:44;;;;;;;28.13;17.40;;;5.00;99.90;;;;;;4957025;28;20231;-74
2022/12/10 01:05:10;;;;;;;27.80;17.40;;;5.00;99.90;;;;;;4941195;28;20179;-74
2022/12/10 01:07:38;;;;;;;30.77;18.33;;;5.00;99.90;;;;;;4957208;28;20458;-75
2022/12/10 01:10:04;;;;;;;29.67;18.00;;;5.00;99.90;;;;;;4941100;28;20174;-75
2022/12/10 01:12:30;;;;;;;25.83;17.50;;;5.00;99.90;;;;;;4940606;28;20458;-74
2022/12/10 01:14:58;;;;;;;25.48;15.80;;;5.00;99.90;;;;;;4937697;29;20653;-74
2022/12/10 01:17:24;;;;;;;27.17;18.05;;;5.00;99.90;;;;;;4953793;29;20315;-74
2022/12/10 01:19:53;;;;;;;27.35;17.02;;;4.90;99.90;;;;;;4921983;29;20212;-75
2022/12/10 01:22:19;;;;;;;25.45;17.23;;;4.90;99.90;;;;;;4954878;29;20239;-74
2022/12/10 01:24:50;;;;;;;29.67;17.30;;;4.90;99.90;;;;;;4938047;29;20162;-74
2022/12/10 01:27:21;;;;;;;25.95;16.98;;;4.90;99.90;;;;;;4937825;29;20199;-75
2022/12/10 01:29:48;;;;;;;27.92;17.02;;;4.90;99.90;;;;;;4937899;29;20164;-75
2022/12/10 01:32:16;;;;;;;23.98;15.85;;;4.90;99.90;;;;;;4953694;29;20571;-75
2022/12/10 01:34:42;;;;;;;27.48;16.45;;;4.90;99.90;;;;;;4922114;29;20188;-74
2022/12/10 01:37:08;;;;;;;24.90;15.33;;;4.90;99.90;;;;;;4925188;29;20274;-74
2022/12/10 01:39:34;;;;;;;23.30;14.70;;;4.90;99.90;;;;;;4957446;28;20419;-75
2022/12/10 01:42:00;;;;;;;24.00;15.43;;;4.90;99.90;;;;;;4925293;29;20483;-74
2022/12/10 01:44:28;;;;;;;24.13;15.80;;;4.90;99.90;;;;;;4957240;29;20482;-75
2022/12/10 01:46:59;;;;;;;25.98;16.33;;;4.80;99.90;;;;;;4925646;29;20527;-75
2022/12/10 01:49:32;;;;;;;26.85;15.65;;;4.90;99.90;;;;;;4941447;29;20638;-75
2022/12/10 01:52:01;;;;;;;24.33;15.50;;;4.90;99.90;;;;;;4957316;29;20210;-75
2022/12/10 01:54:38;;;;;;;25.10;16.00;;;4.80;99.90;;;;;;4941676;29;20255;-74
2022/12/10 01:57:14;;;;;;;26.23;15.60;;;4.90;99.90;;;;;;4958231;29;20203;-75
2022/12/10 01:59:52;;;;;;;27.17;16.70;;;4.80;99.90;;;;;;4973183;28;20246;-75
2022/12/10 02:02:42;;;;;;;20.52;14.40;;;4.80;99.90;;;;;;4941383;29;20235;-75
2022/12/10 02:05:19;;;;;;;26.92;16.80;;;4.80;99.90;;;;;;4941205;29;20302;-75
2022/12/10 02:08:08;;;;;;;25.15;16.35;;;4.80;99.90;;;;;;4955761;28;20643;-75
2022/12/10 02:10:40;;;;;;;19.23;12.68;;;4.80;99.90;;;;;;4939864;29;20208;-75
2022/12/10 02:13:17;;;;;;;30.88;17.00;;;4.80;99.90;;;;;;4957504;28;20494;-74
2022/12/10 02:15:50;;;;;;;27.42;15.40;;;4.80;99.90;;;;;;4960166;28;20229;-75
2022/12/10 02:18:23;;;;;;;23.35;15.10;;;4.80;99.90;;;;;;4960581;28;20178;-75
2022/12/10 02:20:56;;;;;;;27.15;14.70;;;4.80;99.90;;;;;;4943911;28;20215;-74
2022/12/10 02:23:30;;;;;;;24.73;15.77;;;4.70;99.90;;;;;;4944104;28;20191;-75
2022/12/10 02:26:08;;;;;;;22.23;14.70;;;4.70;99.90;;;;;;4959883;28;20163;-75
2022/12/10 02:28:43;;;;;;;24.48;15.98;;;4.70;99.90;;;;;;4959788;28;20199;-74
2022/12/10 02:31:17;;;;;;;24.05;15.73;;;4.70;99.90;;;;;;4928804;28;20211;-75
2022/12/10 02:33:49;;;;;;;24.73;15.30;;;4.70;99.90;;;;;;4959750;28;20687;-74
2022/12/10 02:36:19;;;;;;;24.17;16.08;;;4.70;99.90;;;;;;4959670;28;20171;-75
2022/12/10 02:38:48;;;;;;;27.48;14.65;;;4.70;99.90;;;;;;4959775;28;20174;-74
2022/12/10 02:41:32;;;;;;;24.10;15.57;;;4.70;99.90;;;;;;4959291;28;20211;-75
2022/12/10 02:44:02;;;;;;;22.60;15.30;;;4.70;99.90;;;;;;4943878;28;20522;-74
2022/12/10 02:46:33;;;;;;;25.50;16.00;;;4.70;99.90;;;;;;4944096;28;20321;-75
2022/12/10 02:49:06;;;;;;;25.42;14.80;;;4.60;99.90;;;;;;4943491;28;20214;-74
2022/12/10 02:51:34;;;;;;;27.83;16.05;;;4.70;99.90;;;;;;4991741;28;20207;-74
2022/12/10 02:54:25;;;;;;;24.87;16.07;;;4.70;99.90;;;;;;4943512;28;20182;-75
2022/12/10 02:56:59;;;;;;;23.02;15.20;;;4.60;99.90;;;;;;4971644;28;20428;-75
2022/12/10 02:59:40;;;;;;;22.20;14.93;;;4.60;99.90;;;;;;4924434;29;20208;-74
2022/12/10 03:02:19;;;;;;;24.17;16.02;;;4.60;99.90;;;;;;4924135;29;20215;-75
2022/12/10 03:05:07;;;;;;;24.13;15.02;;;4.60;99.90;;;;;;4940019;29;20168;-75
2022/12/10 03:07:51;;;;;;;23.08;14.80;;;4.60;99.90;;;;;;4940242;29;20204;-75
2022/12/10 03:10:32;;;;;;;25.40;15.23;;;4.60;99.90;;;;;;4927809;28;20233;-75
2022/12/10 03:13:06;;;;;;;24.70;14.77;;;4.60;99.90;;;;;;4959316;28;20536;-75
2022/12/10 03:15:35;;;;;;;23.02;14.48;;;4.60;99.90;;;;;;4958977;28;20180;-74
2022/12/10 03:18:05;;;;;;;22.85;15.65;;;4.60;99.90;;;;;;4959026;28;20178;-75
2022/12/10 03:20:36;;;;;;;24.73;15.70;;;4.60;99.90;;;;;;4950136;28;20269;-74
2022/12/10 03:23:08;;;;;;;21.40;13.88;;;4.60;99.90;;;;;;4943448;28;20183;-75
2022/12/10 03:25:35;;;;;;;25.15;16.15;;;4.60;99.90;;;;;;4958984;28;20176;-74
2022/12/10 03:28:02;;;;;;;22.92;15.32;;;4.60;99.90;;;;;;4959220;28;20202;-75
2022/12/10 03:30:31;;;;;;;23.75;14.50;;;4.60;99.90;;;;;;4974423;28;20246;-74
2022/12/10 03:33:01;;;;;;;27.73;16.33;;;4.60;99.90;;;;;;4974642;28;20546;-75
2022/12/10 03:35:27;;;;;;;26.33;16.73;;;4.60;99.90;;;;;;4942880;28;20171;-75
2022/12/10 03:37:55;;;;;;;21.92;14.60;;;4.60;99.90;;;;;;4990804;28;20243;-74
2022/12/10 03:40:24;;;;;;;22.95;14.90;;;4.60;99.90;;;;;;4942662;28;20245;-74
2022/12/10 03:42:52;;;;;;;23.75;15.82;;;4.60;99.90;;;;;;4975741;28;20188;-74
2022/12/10 03:45:21;;;;;;;23.55;14.57;;;4.60;99.90;;;;;;4975644;28;20199;-75
2022/12/10 03:47:49;;;;;;;24.50;15.43;;;4.60;99.90;;;;;;4958840;28;20183;-75
2022/12/10 03:50:17;;;;;;;22.90;14.75;;;4.60;99.90;;;;;;4958530;28;20175;-74
2022/12/10 03:52:45;;;;;;;25.60;15.32;;;4.60;99.90;;;;;;4958795;28;20203;-74
2022/12/10 03:55:14;;;;;;;25.58;15.57;;;4.50;99.90;;;;;;4975644;28;20631;-74
2022/12/10 03:57:40;;;;;;;22.13;15.35;;;4.60;99.90;;;;;;4942385;28;20186;-75
2022/12/10 04:00:07;;;;;;;27.00;16.33;;;4.50;99.90;;;;;;4941309;28;20198;-74
2022/12/10 04:02:38;;;;;;;24.38;15.23;;;4.60;99.90;;;;;;4975459;28;20446;-75
2022/12/10 04:05:06;;;;;;;24.58;15.98;;;4.60;99.90;;;;;;4958240;28;20680;-74
2022/12/10 04:07:32;;;;;;;24.80;14.82;;;4.60;99.90;;;;;;4975309;28;20199;-75
2022/12/10 04:09:58;;;;;;;23.65;15.60;;;4.60;99.90;;;;;;4975254;28;20200;-74
2022/12/10 04:12:24;;;;;;;21.83;14.63;;;4.60;99.90;;;;;;4942021;28;20203;-74
2022/12/10 04:17:37;;;;;;;23.25;14.55;;;4.60;99.90;;;;;;4975195;28;20245;-75
2022/12/10 04:26:51;;;;;;;21.70;14.10;;;4.60;99.90;;;;;;4942078;28;20179;-75
2022/12/10 04:28:29;;;;;;;19.65;13.88;;;4.50;99.90;;;;;;4942522;28;20317;-75
2022/12/10 04:30:57;;;;;;;24.52;14.32;;;4.50;99.90;;;;;;4974745;28;20635;-74
2022/12/10 04:33:23;;;;;;;19.65;14.45;;;4.50;99.90;;;;;;4974737;28;20175;-74
2022/12/10 04:35:52;;;;;;;24.35;13.85;;;4.50;99.90;;;;;;4957806;28;20188;-74
2022/12/10 04:38:20;;;;;;;25.90;16.30;;;4.50;99.90;;;;;;4957575;28;20179;-75
2022/12/10 04:40:49;;;;;;;22.55;14.65;;;4.50;99.90;;;;;;4974344;28;20700;-75
2022/12/10 04:43:15;;;;;;;26.15;16.63;;;4.50;99.90;;;;;;4974613;28;20190;-74
2022/12/10 04:45:41;;;;;;;24.65;15.77;;;4.50;99.90;;;;;;4946533;29;20543;-75
2022/12/10 04:48:07;;;;;;;25.13;14.57;;;4.50;99.90;;;;;;4955758;29;20207;-74
2022/12/10 04:50:34;;;;;;;22.58;14.48;;;4.50;99.90;;;;;;4938346;29;20164;-74
2022/12/10 04:53:00;;;;;;;21.73;14.48;;;4.50;99.90;;;;;;4955336;29;20192;-75
2022/12/10 04:55:26;;;;;;;20.97;13.27;;;4.50;99.90;;;;;;4922487;29;20179;-74
2022/12/10 04:57:52;;;;;;;23.75;15.07;;;4.50;99.90;;;;;;4955202;29;20493;-74
2022/12/10 05:00:24;;;;;;;23.15;14.52;;;4.50;99.90;;;;;;4938059;29;20250;-74
2022/12/10 05:02:50;;;;;;;26.00;14.68;;;4.50;99.90;;;;;;4922607;29;20242;-74
2022/12/10 05:05:16;;;;;;;23.27;15.35;;;4.50;99.90;;;;;;4927574;28;20175;-74
2022/12/10 05:07:47;;;;;;;22.48;14.60;;;4.50;99.90;;;;;;4973550;28;20175;-74
2022/12/10 05:10:15;;;;;;;26.77;15.60;;;4.50;99.90;;;;;;4968365;28;20238;-74
2022/12/10 05:12:41;;;;;;;25.40;14.38;;;4.50;99.90;;;;;;4938134;29;20282;-74
2022/12/10 05:15:08;;;;;;;21.30;13.77;;;4.50;99.90;;;;;;4953794;29;20214;-75
2022/12/10 05:17:36;;;;;;;23.17;15.50;;;4.50;99.90;;;;;;4922645;29;20207;-75
2022/12/10 05:20:05;;;;;;;24.57;14.90;;;4.50;99.90;;;;;;4954979;29;20164;-75
2022/12/10 05:25:15;;;;;;;22.70;14.88;;;4.50;99.90;;;;;;4944395;28;20179;-74
2022/12/10 05:27:41;;;;;;;24.47;15.90;;;4.50;99.90;;;;;;4974348;28;20159;-75
2022/12/10 05:30:10;;;;;;;23.10;14.02;;;4.50;99.90;;;;;;4974211;28;20478;-74
2022/12/10 05:32:37;;;;;;;21.73;14.95;;;4.50;99.90;;;;;;4957191;28;20207;-75
2022/12/10 05:35:10;;;;;;;24.15;14.15;;;4.50;99.90;;;;;;4941434;28;20506;-75
2022/12/10 05:37:38;;;;;;;23.65;15.13;;;4.50;99.90;;;;;;4941672;28;20175;-74
2022/12/10 05:40:05;;;;;;;24.65;14.90;;;4.50;99.90;;;;;;4953849;29;20207;-75
2022/12/10 05:42:31;;;;;;;22.75;14.25;;;4.40;99.90;;;;;;4937955;28;20290;-75
2022/12/10 05:44:57;;;;;;;23.75;15.20;;;4.50;99.90;;;;;;4937238;29;20167;-75
2022/12/10 05:47:27;;;;;;;21.42;14.00;;;4.40;99.90;;;;;;4954805;29;20174;-74
2022/12/10 05:50:52;;;;;;;21.70;14.10;;;4.40;99.90;;;;;;4937604;29;20208;-74
2022/12/10 05:53:20;;;;;;;22.33;13.85;;;4.40;99.90;;;;;;4979139;23;20510;-79
2022/12/10 05:55:46;;;;;;;21.07;14.30;;;4.40;99.90;;;;;;4979369;28;20210;-79
2022/12/10 05:58:13;;;;;;;21.15;14.05;;;4.40;99.90;;;;;;4932596;28;20470;-79
2022/12/10 06:00:41;;;;;;;24.15;15.68;;;4.40;99.90;;;;;;4964191;28;20219;-79
2022/12/10 06:03:10;;;;;;;23.55;14.50;;;4.40;99.90;;;;;;4946541;28;20226;-79
2022/12/10 06:05:40;;;;;;;25.27;16.23;;;4.40;99.90;;;;;;4929955;29;20247;-79
2022/12/10 06:08:07;;;;;;;25.23;15.68;;;4.40;99.90;;;;;;4956610;28;20187;-79
2022/12/10 06:10:38;;;;;;;28.50;16.48;;;4.40;99.90;;;;;;4964841;28;20319;-79
2022/12/10 06:13:05;;;;;;;24.05;15.45;;;4.40;99.90;;;;;;4930227;28;20218;-79
2022/12/10 06:15:32;;;;;;;25.45;15.68;;;4.40;99.90;;;;;;4958993;29;20179;-79
2022/12/10 06:17:59;;;;;;;27.45;16.33;;;4.40;99.90;;;;;;4929482;29;20195;-79
2022/12/10 06:20:27;;;;;;;27.27;16.23;;;4.40;99.90;;;;;;4923950;28;20214;-79
2022/12/10 06:22:56;;;;;;;25.48;16.00;;;4.40;99.90;;;;;;4966365;28;20159;-79
2022/12/10 06:25:22;;;;;;;24.20;14.83;;;4.40;99.90;;;;;;4952473;28;20223;-79
2022/12/10 06:27:48;;;;;;;24.85;16.00;;;4.40;99.90;;;;;;4962781;28;20498;-79
2022/12/10 06:30:16;;;;;;;26.17;15.80;;;4.40;99.90;;;;;;4960387;29;20200;-79
2022/12/10 06:32:42;;;;;;;25.45;16.40;;;4.40;99.90;;;;;;4948491;29;20598;-79
2022/12/10 06:35:09;;;;;;;26.90;16.30;;;4.30;99.90;;;;;;4948365;29;20568;-79
2022/12/10 06:37:36;;;;;;;27.33;16.67;;;4.40;99.90;;;;;;4948314;29;20220;-78
2022/12/10 06:40:05;;;;;;;26.30;15.43;;;4.40;99.90;;;;;;4948891;28;20185;-79
2022/12/10 06:42:32;;;;;;;28.67;15.63;;;4.40;99.90;;;;;;4948357;29;20200;-79
2022/12/10 06:45:05;;;;;;;29.20;17.33;;;4.40;99.90;;;;;;4963750;28;20190;-79
2022/12/10 06:47:31;;;;;;;32.58;17.38;;;4.40;99.90;;;;;;4951450;28;20203;-79
2022/12/10 06:49:59;;;;;;;28.52;16.55;;;4.40;99.90;;;;;;4934443;28;20195;-79
2022/12/10 06:52:26;;;;;;;31.85;18.55;;;4.40;99.90;;;;;;4948797;29;20721;-79
2022/12/10 06:54:55;;;;;;;33.03;17.70;;;4.40;99.90;;;;;;4953429;28;20299;-79
2022/12/10 06:57:21;;;;;;;32.08;16.67;;;4.30;99.90;;;;;;4949086;29;20679;-79
2022/12/10 06:59:49;;;;;;;29.73;19.15;;;4.40;99.90;;;;;;4955310;28;20210;-78
2022/12/10 07:02:20;;;;;;;31.05;18.33;;;4.30;99.90;;;;;;4952329;28;20234;-79
2022/12/10 07:04:46;;;;;;;30.53;17.27;;;4.40;99.90;;;;;;4945785;29;20223;-78
2022/12/10 07:07:14;;;;;;;29.02;17.27;;;4.40;99.90;;;;;;4950121;28;20490;-79
2022/12/10 07:09:40;;;;;;;28.65;16.98;;;4.40;99.90;;;;;;4963950;28;20184;-79
2022/12/10 07:12:08;;;;;;;30.17;17.67;;;4.40;99.90;;;;;;4964249;29;20211;-78
2022/12/10 07:14:36;;;;;;;30.77;17.67;;;4.40;99.90;;;;;;4959015;28;20833;-79
2022/12/10 07:17:05;;;;;;;30.90;18.50;;;4.40;99.90;;;;;;4966921;28;20179;-79
2022/12/10 07:19:33;;;;;;;32.33;19.02;;;4.30;99.90;;;;;;4967066;28;20651;-79
2022/12/10 07:22:02;;;;;;;35.75;20.30;;;4.40;99.90;;;;;;4931404;29;20219;-79
2022/12/10 07:24:28;;;;;;;30.25;18.20;;;4.40;99.90;;;;;;4963444;29;20195;-79
2022/12/10 07:26:56;;;;;;;35.63;18.70;;;4.30;99.90;;;;;;4980119;28;20182;-79
2022/12/10 07:29:26;;;;;;;31.15;18.20;;;4.30;99.90;;;;;;4948249;29;20451;-79
2022/12/10 07:31:55;;;;;;;33.85;18.85;;;4.40;99.90;;;;;;4992425;28;20226;-79
2022/12/10 07:34:21;;;;;;;34.47;19.20;;;4.30;99.90;;;;;;4969844;28;20266;-79
2022/12/10 07:36:47;;;;;;;32.90;18.50;;;4.40;99.90;;;;;;4979479;28;20235;-75
2022/12/10 07:39:21;;;;;;;32.40;19.85;;;4.40;99.90;;;;;;4973552;28;20493;-75
2022/12/10 07:41:57;;;;;;;34.22;19.83;;;4.40;99.90;;;;;;4972252;28;20281;-74
2022/12/10 07:44:27;;;;;;;35.40;20.10;;;4.30;99.90;;;;;;4941048;29;20198;-75
2022/12/10 07:46:54;;;;;;;33.70;19.67;;;4.40;99.90;;;;;;4954047;28;20652;-74
2022/12/10 07:49:23;;;;;;;37.58;20.05;;;4.40;99.90;;;;;;4929068;29;20416;-74
2022/12/10 07:51:50;;;;;;;37.03;19.60;;;4.40;99.90;;;;;;4938530;29;20661;-75
2022/12/10 07:54:19;;;;;;;32.78;18.58;;;4.30;99.90;;;;;;4939577;28;20502;-75
2022/12/10 07:56:46;;;;;;;39.63;20.77;;;4.30;99.90;;;;;;4975060;28;20172;-74
2022/12/10 07:59:12;;;;;;;39.00;19.90;;;4.40;99.90;;;;;;4957763;28;20273;-75
2022/12/10 08:01:38;;;;;;;35.47;19.95;;;4.40;99.90;;;;;;4956437;28;20640;-75
2022/12/10 08:04:06;;;;;;;36.53;21.13;;;4.30;99.90;;;;;;4955461;29;20175;-74
2022/12/10 08:06:34;;;;;;;40.63;21.53;;;4.40;99.90;;;;;;4954709;28;20231;-75
2022/12/10 08:09:00;;;;;;;44.47;21.40;;;4.30;99.90;;;;;;4939309;28;20919;-74
2022/12/10 08:11:27;;;;;;;40.47;20.60;;;4.30;99.90;;;;;;4966243;28;20207;-74
2022/12/10 08:13:56;;;;;;;39.50;20.65;;;4.30;99.90;;;;;;4942038;28;20493;-75
2022/12/10 08:16:27;;;;;;;34.88;19.60;;;4.30;99.90;;;;;;4925678;28;20363;-74
2022/12/10 08:18:58;;;;;;;39.78;21.33;;;4.30;99.90;;;;;;4957071;28;20191;-74
2022/12/10 08:21:29;;;;;;;31.75;19.98;;;4.30;99.90;;;;;;4957280;28;20222;-75
2022/12/10 08:23:55;;;;;;;40.63;21.00;;;4.30;99.90;;;;;;4941590;28;20246;-75
2022/12/10 08:26:24;;;;;;;33.90;20.13;;;4.30;99.90;;;;;;4957298;28;20700;-75
2022/12/10 08:28:56;;;;;;;39.45;21.60;;;4.30;99.90;;;;;;4956261;28;20442;-75
2022/12/10 08:31:23;;;;;;;37.60;20.70;;;4.30;99.90;;;;;;4943631;28;20325;-74
2022/12/10 08:33:50;;;;;;;37.05;20.75;;;4.30;99.90;;;;;;4965936;28;20183;-75
2022/12/10 08:36:17;;;;;;;33.60;18.60;;;4.30;99.90;;;;;;4938236;29;20599;-74
2022/12/10 08:38:45;;;;;;;38.75;19.85;;;4.30;99.90;;;;;;4954968;29;20304;-75
2022/12/10 08:41:17;;;;;;;39.10;22.77;;;4.30;99.90;;;;;;4942384;28;20211;-75
2022/12/10 08:43:47;;;;;;;35.35;19.05;;;4.30;99.90;;;;;;4941241;28;20171;-75
2022/12/10 08:46:15;;;;;;;38.78;20.05;;;4.30;99.90;;;;;;4956735;28;20665;-75
2022/12/10 08:48:42;;;;;;;34.58;20.35;;;4.30;99.90;;;;;;4973359;28;20202;-74
2022/12/10 08:51:11;;;;;;;36.45;19.83;;;4.30;99.90;;;;;;4953625;29;20218;-75
2022/12/10 08:53:37;;;;;;;35.28;19.17;;;4.30;99.90;;;;;;4959320;28;20690;-75
2022/12/10 08:56:08;;;;;;;42.00;21.98;;;4.30;99.90;;;;;;4940342;28;20199;-74
2022/12/10 08:58:38;;;;;;;37.15;19.85;;;4.30;99.90;;;;;;4974106;28;20659;-74
2022/12/10 09:01:15;;;;;;;32.03;19.35;;;4.30;99.90;;;;;;4974006;28;20207;-74
2022/12/10 09:03:41;;;;;;;37.30;20.55;;;4.30;99.90;;;;;;4941025;28;20194;-75
2022/12/10 09:06:15;;;;;;;39.78;20.58;;;4.30;99.90;;;;;;4957090;28;20190;-75
2022/12/10 09:08:46;;;;;;;33.88;19.88;;;4.30;99.90;;;;;;4945635;29;20207;-74
2022/12/10 09:11:23;;;;;;;38.63;18.35;;;4.30;99.90;;;;;;4958266;28;20198;-75
2022/12/10 09:13:50;;;;;;;35.78;20.27;;;4.30;99.90;;;;;;4973863;28;20206;-75
2022/12/10 09:16:16;;;;;;;34.72;19.00;;;4.30;99.90;;;;;;4956580;28;20180;-75
2022/12/10 09:18:42;;;;;;;41.55;21.10;;;4.30;99.90;;;;;;4940597;28;20237;-75
2022/12/10 09:21:12;;;;;;;37.75;20.58;;;4.30;99.90;;;;;;4955685;28;20218;-74
2022/12/10 09:23:38;;;;;;;36.85;19.27;;;4.30;99.90;;;;;;4956440;28;20205;-74
2022/12/10 09:26:09;;;;;;;35.63;19.70;;;4.30;99.90;;;;;;4941056;28;20195;-75
2022/12/10 09:28:39;;;;;;;37.40;20.33;;;4.30;99.90;;;;;;4956970;28;20186;-74
2022/12/10 09:31:11;;;;;;;37.78;20.08;;;4.30;99.90;;;;;;4973969;28;20206;-74
2022/12/10 09:33:40;;;;;;;33.53;20.15;;;4.30;99.90;;;;;;4956988;28;21033;-74
2022/12/10 09:36:09;;;;;;;34.92;18.77;;;4.30;99.90;;;;;;4955827;28;20168;-74
2022/12/10 09:38:39;;;;;;;34.38;18.27;;;4.30;99.90;;;;;;4971607;28;20167;-74
2022/12/10 09:41:34;;;;;;;33.05;19.65;;;4.30;99.90;;;;;;4953706;28;20211;-74
2022/12/10 09:44:13;;;;;;;37.95;19.52;;;4.30;99.90;;;;;;4943565;29;20200;-74
2022/12/10 09:46:51;;;;;;;36.10;18.98;;;4.30;99.90;;;;;;4939857;28;20174;-74
2022/12/10 09:49:57;;;;;;;36.78;20.10;;;4.20;99.90;;;;;;4954545;28;20214;-73
2022/12/10 09:52:34;;;;;;;32.88;18.90;;;4.20;99.90;;;;;;4934361;29;20247;-73
2022/12/10 09:55:07;;;;;;;35.70;19.38;;;4.20;99.90;;;;;;4971956;28;20214;-73
2022/12/10 09:57:41;;;;;;;33.92;19.10;;;4.20;99.90;;;;;;4964135;28;20184;-73
2022/12/10 10:00:27;;;;;;;35.28;20.73;;;4.20;99.90;;;;;;4940105;29;20302;-73
2022/12/10 10:02:59;;;;;;;32.00;18.33;;;4.20;99.90;;;;;;4952033;28;20174;-73
2022/12/10 10:05:29;;;;;;;35.58;20.02;;;4.20;99.90;;;;;;4942172;29;20198;-73
2022/12/10 10:08:05;;;;;;;39.97;20.85;;;4.20;99.90;;;;;;4953566;28;20167;-73
2022/12/10 10:10:38;;;;;;;40.70;21.25;;;4.20;99.90;;;;;;4971228;28;20274;-73
2022/12/10 10:13:07;;;;;;;32.47;19.50;;;4.20;99.90;;;;;;4940328;28;20191;-74
2022/12/10 10:15:39;;;;;;;31.88;18.25;;;4.20;99.90;;;;;;4940222;29;20187;-74
2022/12/10 10:18:21;;;;;;;33.08;18.67;;;4.20;99.90;;;;;;4964127;28;20183;-74
2022/12/10 10:20:50;;;;;;;39.13;19.08;;;4.30;99.90;;;;;;4959218;28;20595;-74
2022/12/10 10:23:16;;;;;;;31.10;17.33;;;4.30;99.90;;;;;;4956103;29;20179;-74
2022/12/10 10:25:46;;;;;;;35.03;19.42;;;4.30;99.90;;;;;;4965630;28;20644;-74
2022/12/10 10:28:19;;;;;;;32.70;18.98;;;4.30;99.90;;;;;;4975292;28;20195;-74
2022/12/10 10:30:48;;;;;;;32.60;17.88;;;4.20;99.90;;;;;;4959143;28;20237;-74
2022/12/10 10:33:16;;;;;;;37.05;18.90;;;4.20;99.90;;;;;;4966880;28;20684;-74
2022/12/10 10:35:59;;;;;;;32.42;18.23;;;4.20;99.90;;;;;;4941444;29;20207;-74
2022/12/10 10:38:31;;;;;;;29.17;17.02;;;4.20;99.90;;;;;;4956807;29;20256;-74
2022/12/10 10:41:00;;;;;;;31.23;18.77;;;4.20;99.90;;;;;;4948503;28;20709;-74
2022/12/10 10:43:41;;;;;;;33.15;18.40;;;4.20;99.90;;;;;;4929885;29;20212;-74
2022/12/10 10:46:14;;;;;;;33.78;18.40;;;4.20;99.90;;;;;;4939829;29;20207;-74
2022/12/10 10:48:40;;;;;;;37.05;20.42;;;4.30;99.90;;;;;;4966982;28;20183;-74
2022/12/10 10:51:11;;;;;;;31.25;17.27;;;4.20;99.90;;;;;;4958572;28;20230;-74
2022/12/10 10:53:49;;;;;;;30.20;17.27;;;4.20;99.90;;;;;;4958273;28;20567;-74
2022/12/10 10:56:26;;;;;;;30.90;17.40;;;4.20;99.90;;;;;;4927124;28;20242;-74
2022/12/10 10:59:00;;;;;;;33.88;17.33;;;4.20;99.90;;;;;;4960624;28;20306;-74
2022/12/10 11:01:46;;;;;;;29.60;18.58;;;4.20;99.90;;;;;;4956336;28;20617;-74
2022/12/10 11:04:17;;;;;;;30.60;18.08;;;4.20;99.90;;;;;;4940286;28;20206;-74
2022/12/10 11:06:44;;;;;;;30.45;16.90;;;4.30;99.90;;;;;;4946043;28;20246;-74
2022/12/10 11:09:33;;;;;;;30.33;17.90;;;4.20;99.90;;;;;;4956415;28;20164;-74
2022/12/10 11:12:01;;;;;;;32.92;16.30;;;4.30;99.90;;;;;;4952910;29;20216;-74
2022/12/10 11:14:32;;;;;;;28.30;16.80;;;4.30;99.90;;;;;;4939700;28;20227;-74
2022/12/10 11:17:10;;;;;;;27.88;15.63;;;4.20;99.90;;;;;;4939508;29;20271;-74
2022/12/10 11:19:53;;;;;;;28.92;16.92;;;4.30;99.90;;;;;;4939661;29;20182;-74
2022/12/10 11:22:28;;;;;;;27.85;16.10;;;4.30;99.90;;;;;;4926783;29;20219;-74
2022/12/10 11:24:57;;;;;;;29.48;16.95;;;4.30;99.90;;;;;;4968003;28;20670;-74
2022/12/10 11:27:38;;;;;;;27.88;17.10;;;4.30;99.90;;;;;;4977673;28;20181;-74
2022/12/10 11:30:19;;;;;;;29.90;17.45;;;4.30;99.90;;;;;;4955852;29;20171;-74
2022/12/10 11:32:54;;;;;;;29.75;17.40;;;4.30;99.90;;;;;;4923757;28;20215;-74
2022/12/10 11:36:01;;;;;;;23.60;15.65;;;4.30;99.90;;;;;;4957748;28;20185;-74
2022/12/10 11:38:56;;;;;;;24.30;15.23;;;4.40;99.90;;;;;;4955865;28;20289;-74
2022/12/10 11:41:31;;;;;;;28.35;16.23;;;4.30;99.90;;;;;;4957774;28;20227;-74
2022/12/10 11:44:23;;;;;;;27.30;15.77;;;4.30;99.90;;;;;;4970779;28;20206;-74
2022/12/10 11:47:06;;;;;;;24.38;15.32;;;4.30;99.90;;;;;;4966864;28;20539;-74
2022/12/10 11:49:48;;;;;;;28.48;15.63;;;4.30;99.90;;;;;;4929642;29;20665;-74
2022/12/10 11:52:16;;;;;;;29.20;15.50;;;4.30;99.90;;;;;;4954598;28;20203;-74
2022/12/10 11:55:09;;;;;;;28.13;16.75;;;4.30;99.90;;;;;;4955196;28;20200;-74
2022/12/10 11:58:08;;;;;;;26.80;15.75;;;4.30;99.90;;;;;;4928037;28;20182;-74
2022/12/10 12:01:03;;;;;;;26.40;15.00;;;4.30;99.90;;;;;;4944444;28;20691;-74
2022/12/10 12:03:38;;;;;;;26.02;15.35;;;4.30;99.90;;;;;;4940681;29;20274;-74
2022/12/10 12:06:32;;;;;;;24.80;14.13;;;4.30;99.90;;;;;;4938535;28;20159;-74
2022/12/10 12:09:33;;;;;;;24.50;14.82;;;4.30;99.90;;;;;;4937853;28;20274;-74
2022/12/10 12:12:18;;;;;;;27.58;15.45;;;4.30;99.90;;;;;;4956735;28;20233;-74
2022/12/10 12:14:59;;;;;;;24.70;16.50;;;4.30;99.90;;;;;;4938236;29;20262;-74
2022/12/10 12:17:41;;;;;;;25.23;14.95;;;4.30;99.90;;;;;;4922123;28;20187;-74
2022/12/10 12:20:22;;;;;;;27.83;15.80;;;4.30;99.90;;;;;;4968238;28;20214;-74
2022/12/10 12:23:01;;;;;;;25.55;14.13;;;4.30;99.90;;;;;;4944305;28;20238;-74
2022/12/10 12:25:34;;;;;;;28.92;15.98;;;4.30;99.90;;;;;;4968080;28;20231;-74
2022/12/10 12:28:09;;;;;;;21.60;13.65;;;4.30;99.90;;;;;;4948728;28;20195;-74
2022/12/10 12:30:43;;;;;;;23.58;14.05;;;4.30;99.90;;;;;;4957042;28;20207;-74
2022/12/10 12:33:23;;;;;;;25.10;14.57;;;4.30;99.90;;;;;;4947482;29;20571;-74
2022/12/10 12:35:58;;;;;;;22.55;14.15;;;4.40;99.90;;;;;;4921933;29;20214;-74
2022/12/10 12:38:39;;;;;;;27.55;15.20;;;4.40;99.90;;;;;;4966440;28;20179;-74
2022/12/10 12:41:16;;;;;;;23.67;14.20;;;4.40;99.90;;;;;;4924674;28;20219;-74
2022/12/10 12:43:52;;;;;;;26.80;16.02;;;4.40;99.90;;;;;;4940988;29;20268;-74
2022/12/10 12:46:35;;;;;;;24.08;13.65;;;4.40;99.90;;;;;;4955357;28;20205;-74
2022/12/10 12:49:27;;;;;;;24.70;15.13;;;4.40;99.90;;;;;;4955038;28;20187;-74
2022/12/10 12:52:01;;;;;;;23.98;14.18;;;4.40;99.90;;;;;;4949663;28;20211;-74
2022/12/10 12:54:31;;;;;;;24.10;14.75;;;4.40;99.90;;;;;;4954414;29;20652;-74
2022/12/10 12:57:16;;;;;;;24.83;14.88;;;4.30;99.90;;;;;;4951918;28;20179;-74
2022/12/10 13:00:05;;;;;;;26.60;14.40;;;4.40;99.90;;;;;;4951191;28;20612;-74
2022/12/10 13:03:18;;;;;;;26.55;14.80;;;4.40;99.90;;;;;;4949972;28;20207;-74
2022/12/10 13:05:46;;;;;;;29.52;14.95;;;4.40;99.90;;;;;;4937325;29;20327;-74
2022/12/10 13:08:28;;;;;;;22.38;13.60;;;4.40;99.90;;;;;;4938988;28;20215;-74
2022/12/10 13:10:57;;;;;;;25.80;14.27;;;4.40;99.90;;;;;;4972806;28;20222;-74